A- A+ FrançaisEnglishEspañol中国

Services sur Internet Soldes sur Internet Des idées de cadeaux Météo Météo aéro

La météo à : Autours de vous Tarbes-Lourdes-PyrénéesPerpignan-RivesalterDax-Seyresse Logne-Emerainville

La météo aéronautique pour les pilotes, la préparation du vol avec les METAR (METeorological Aerodrome Report, message d'observation des conditions météorologiques pour l'aviation) et Les TAF (Terminal Aerodrome Forecast : message de prévision à court terme des conditions météorologiques pour l'aviation). Et les autres ressources comme les VAC (Visual Approch Chart) et les NOTAM (Notice To Airman) pour préprer les vols.

Aéroport Celle (Allemagne) / OACI ETHC/ IATA ZCN

L'altitude de l'aéroport Celle est de 39 m = 128 ft. Il est situé à proximité de (Allemagne). La météo générale à 5 jours est disponible pour Dasselsbruch situé à 3.1 km.

METAR de l'aéroport Celle - ETHC

ETHC 071820Z AUTO 24013KT 9999 // ////// 08/06 Q1011 ///

Décodage du METAR de l'aéroport Celle (DE)

METAR émis par ETHC le samedi 7 décembre 2019 à 18:20 heure TU. C'est un METAR généré automatiquement, il y a 28 minutes.

La visibilité est de supérieure à 10 km = supérieure à 6.2 sm.

La température est de 8°C = 46 °F et le point rosée est de 6°C = 43 °F . Ce qui correspond à 87% d'humidité relative.

Le QNH est de 1011 hPa = 29.85 inHg

Vent de 13 kt = 24 km/h, orienté à 240°.

Pas de nuages.

///

TAF de l'aéroport Celle - ETHC

ETHC 301601Z 3015/3024 08005KT 9999 NSW FEW030 SCT300 BECMG 3022/3024 VRB02KT 5000 BR FEW300 CANCEL 1630

ETHC 301601Z 3015/3024 08005KT 9999 NSW quelques nuages à 030 nuages épars à 300 devenant 3022/3024 VRB02KT 5000 brume quelques nuages à 300 CANCEL 1630

Aéroport à proximité de Celle

Météo générale à 5 jours à Dasselsbruch (3.1 km)Aéroport Celle Arloh (12 km)Aéroport Hannover (27 km)Aéroport Hodenhagen (34 km)Aéroport Fassberg (38 km)Aéroport Wunstorf (43 km)Aéroport Hildesheim (46 km)

Vue aérienne de l'aéroport Celle

NOTAM de l'aéroport Celle

Les NOTAM sont fournis sans aucune garantie de leur actualité. Le pilote est le seul responsable de la vérification de sa validité avant de l'utiliser opérationnellement pour préparer un vol ou l'utiliser lors de sa navigation.

Pas de NOTAM

Sources des données